Mather, California
Current Conditions -  °F | °C
As of 1:47 PM on Sunday 21 Dec 2014 (Local Time) from KMHR Reporting Station
Broken Clouds Broken Clouds  
Wind Chill: 63°   Ceiling: 3700
Heat Index: 63°   Visibility: 10mi
Dew Point: 63°   Wind: 5mph
Humidity: 100%   Direction: 160°SSE
Pressure: 30.25"   Gusts: NA
Location:  38.55°N, 121.28°W
Report Text: KMHR 212147Z 16004KT 10SM SCT017 BKN037 17/17 A3025
Loading
Personal Weather Stations






























Interactive Weather Map New forecast layout! Learn more

10-Day Weather Forecast

Advertisements
Track Severe Weather on mobile